KTHV/THV METAR and TAF weather

Enter ICAO airport designator
Station Type Date Time Source
KTHV METAR 2021/02/24 16:53 UTC NOAA

KTHV 241653Z AUTO 21008KT 10SM CLR 11/M04 A3000 RMK AO2 SLP163 T01061044


Station Type Date Time Source
KTHV Decoded METAR 2021/02/24 16:53 UTC NOAA

YORK AIRPORT, PA, United States (KTHV) 39-55N 076-53W 144M
Feb 24, 2021 - 11:53 AM EST / 2021.02.24 1653 UTC
Wind: from the SSW (210 degrees) at 9 MPH (8 KT):0
Visibility: 10 mile(s):0
Sky conditions: clear
Temperature: 51.1 F (10.6 C)
Dew Point: 24.1 F (-4.4 C)
Relative Humidity: 34%
Pressure (altimeter): 30 in. Hg (1015 hPa)
ob: KTHV 241653Z AUTO 21008KT 10SM CLR 11/M04 A3000 RMK AO2 SLP163 T01061044
cycle: 17

Station Type Date Time Source
KTHV TAF UTC NOAA

Error!

Example: see airport list